sensor_id;sensor_type;location;lat;lon;timestamp;P1;durP1;ratioP1;P2;durP2;ratioP2
23519;SDS011;11936;50.820;4.336;2024-01-27T00:00:39;12.68;;;3.42;;
23519;SDS011;11936;50.820;4.336;2024-01-27T00:03:04;14.70;;;4.00;;
23519;SDS011;11936;50.820;4.336;2024-01-27T00:05:30;8.00;;;4.13;;
23519;SDS011;11936;50.820;4.336;2024-01-27T00:07:55;12.80;;;4.50;;
23519;SDS011;11936;50.820;4.336;2024-01-27T00:10:21;12.60;;;4.45;;
23519;SDS011;11936;50.820;4.336;2024-01-27T00:12:46;13.75;;;4.78;;
23519;SDS011;11936;50.820;4.336;2024-01-27T00:15:12;15.52;;;4.68;;
23519;SDS011;11936;50.820;4.336;2024-01-27T00:17:38;11.73;;;4.03;;
23519;SDS011;11936;50.820;4.336;2024-01-27T00:20:04;14.23;;;4.65;;
23519;SDS011;11936;50.820;4.336;2024-01-27T00:22:31;12.65;;;4.38;;
23519;SDS011;11936;50.820;4.336;2024-01-27T00:24:56;15.32;;;4.80;;
23519;SDS011;11936;50.820;4.336;2024-01-27T00:27:22;10.95;;;4.35;;
23519;SDS011;11936;50.820;4.336;2024-01-27T00:29:47;12.88;;;4.82;;
23519;SDS011;11936;50.820;4.336;2024-01-27T00:32:13;14.65;;;5.10;;
23519;SDS011;11936;50.820;4.336;2024-01-27T00:34:38;11.40;;;4.75;;
23519;SDS011;11936;50.820;4.336;2024-01-27T00:37:04;13.60;;;5.00;;
23519;SDS011;11936;50.820;4.336;2024-01-27T00:39:31;17.88;;;4.85;;
23519;SDS011;11936;50.820;4.336;2024-01-27T00:41:56;20.00;;;6.45;;
23519;SDS011;11936;50.820;4.336;2024-01-27T00:44:23;12.80;;;4.20;;
23519;SDS011;11936;50.820;4.336;2024-01-27T00:46:49;17.80;;;4.90;;
23519;SDS011;11936;50.820;4.336;2024-01-27T00:49:14;9.82;;;4.65;;
23519;SDS011;11936;50.820;4.336;2024-01-27T00:51:40;14.38;;;5.03;;
23519;SDS011;11936;50.820;4.336;2024-01-27T00:54:05;14.45;;;5.40;;
23519;SDS011;11936;50.820;4.336;2024-01-27T00:56:31;13.88;;;4.72;;
23519;SDS011;11936;50.820;4.336;2024-01-27T00:58:57;13.95;;;4.40;;
23519;SDS011;11936;50.820;4.336;2024-01-27T01:01:22;20.02;;;4.82;;
23519;SDS011;11936;50.820;4.336;2024-01-27T01:03:48;17.63;;;5.03;;
23519;SDS011;11936;50.820;4.336;2024-01-27T01:06:14;14.55;;;4.40;;
23519;SDS011;11936;50.820;4.336;2024-01-27T01:08:39;11.55;;;5.07;;
23519;SDS011;11936;50.820;4.336;2024-01-27T01:11:05;11.05;;;5.57;;
23519;SDS011;11936;50.820;4.336;2024-01-27T01:13:30;14.93;;;4.90;;
23519;SDS011;11936;50.820;4.336;2024-01-27T01:15:56;14.40;;;5.85;;
23519;SDS011;11936;50.820;4.336;2024-01-27T01:18:21;13.02;;;4.25;;
23519;SDS011;11936;50.820;4.336;2024-01-27T01:20:47;14.82;;;4.68;;
23519;SDS011;11936;50.820;4.336;2024-01-27T01:23:13;14.93;;;4.93;;
23519;SDS011;11936;50.820;4.336;2024-01-27T01:25:38;14.70;;;4.65;;
23519;SDS011;11936;50.820;4.336;2024-01-27T01:28:04;14.13;;;5.13;;
23519;SDS011;11936;50.820;4.336;2024-01-27T01:30:29;18.42;;;5.60;;
23519;SDS011;11936;50.820;4.336;2024-01-27T01:32:55;12.93;;;4.25;;
23519;SDS011;11936;50.820;4.336;2024-01-27T01:35:20;17.92;;;4.50;;
23519;SDS011;11936;50.820;4.336;2024-01-27T01:37:46;17.40;;;5.22;;
23519;SDS011;11936;50.820;4.336;2024-01-27T01:40:13;15.07;;;5.18;;
23519;SDS011;11936;50.820;4.336;2024-01-27T01:42:40;20.15;;;5.68;;
23519;SDS011;11936;50.820;4.336;2024-01-27T01:45:06;11.02;;;5.20;;
23519;SDS011;11936;50.820;4.336;2024-01-27T01:47:33;16.67;;;4.85;;
23519;SDS011;11936;50.820;4.336;2024-01-27T01:49:59;18.33;;;6.82;;
23519;SDS011;11936;50.820;4.336;2024-01-27T01:52:25;20.13;;;5.35;;
23519;SDS011;11936;50.820;4.336;2024-01-27T01:54:51;12.98;;;4.82;;
23519;SDS011;11936;50.820;4.336;2024-01-27T01:57:16;16.02;;;4.90;;
23519;SDS011;11936;50.820;4.336;2024-01-27T01:59:42;11.77;;;4.85;;
23519;SDS011;11936;50.820;4.336;2024-01-27T02:02:08;13.10;;;5.32;;
23519;SDS011;11936;50.820;4.336;2024-01-27T02:04:43;16.23;;;5.43;;
23519;SDS011;11936;50.820;4.336;2024-01-27T02:07:11;13.95;;;5.55;;
23519;SDS011;11936;50.820;4.336;2024-01-27T02:09:37;17.63;;;5.85;;
23519;SDS011;11936;50.820;4.336;2024-01-27T02:12:02;13.52;;;5.60;;
23519;SDS011;11936;50.820;4.336;2024-01-27T02:14:28;14.35;;;4.60;;
23519;SDS011;11936;50.820;4.336;2024-01-27T02:16:58;12.88;;;5.45;;
23519;SDS011;11936;50.820;4.336;2024-01-27T02:19:24;16.67;;;5.57;;
23519;SDS011;11936;50.820;4.336;2024-01-27T02:21:50;12.48;;;5.15;;
23519;SDS011;11936;50.820;4.336;2024-01-27T02:24:15;18.27;;;5.15;;
23519;SDS011;11936;50.820;4.336;2024-01-27T02:26:41;16.17;;;5.65;;
23519;SDS011;11936;50.820;4.336;2024-01-27T02:29:07;21.13;;;5.63;;
23519;SDS011;11936;50.820;4.336;2024-01-27T02:31:32;12.13;;;4.93;;
23519;SDS011;11936;50.820;4.336;2024-01-27T02:33:58;11.48;;;5.30;;
23519;SDS011;11936;50.820;4.336;2024-01-27T02:36:24;9.65;;;4.97;;
23519;SDS011;11936;50.820;4.336;2024-01-27T02:38:49;13.00;;;5.22;;
23519;SDS011;11936;50.820;4.336;2024-01-27T02:41:15;11.48;;;5.20;;
23519;SDS011;11936;50.820;4.336;2024-01-27T02:43:40;21.13;;;5.75;;
23519;SDS011;11936;50.820;4.336;2024-01-27T02:46:11;17.13;;;5.28;;
23519;SDS011;11936;50.820;4.336;2024-01-27T02:48:41;16.73;;;5.30;;
23519;SDS011;11936;50.820;4.336;2024-01-27T02:51:10;14.23;;;5.85;;
23519;SDS011;11936;50.820;4.336;2024-01-27T02:53:35;12.45;;;4.93;;
23519;SDS011;11936;50.820;4.336;2024-01-27T02:56:01;19.90;;;5.80;;
23519;SDS011;11936;50.820;4.336;2024-01-27T02:58:27;15.90;;;4.57;;
23519;SDS011;11936;50.820;4.336;2024-01-27T03:00:52;16.52;;;6.25;;
23519;SDS011;11936;50.820;4.336;2024-01-27T03:03:18;16.25;;;4.80;;
23519;SDS011;11936;50.820;4.336;2024-01-27T03:05:44;12.98;;;4.82;;
23519;SDS011;11936;50.820;4.336;2024-01-27T03:08:10;13.88;;;5.15;;
23519;SDS011;11936;50.820;4.336;2024-01-27T03:10:35;13.43;;;4.78;;
23519;SDS011;11936;50.820;4.336;2024-01-27T03:13:01;17.55;;;4.45;;
23519;SDS011;11936;50.820;4.336;2024-01-27T03:15:26;14.63;;;4.57;;
23519;SDS011;11936;50.820;4.336;2024-01-27T03:17:52;12.88;;;4.50;;
23519;SDS011;11936;50.820;4.336;2024-01-27T03:20:18;24.30;;;5.68;;
23519;SDS011;11936;50.820;4.336;2024-01-27T03:22:43;16.90;;;5.20;;
23519;SDS011;11936;50.820;4.336;2024-01-27T03:25:09;15.65;;;5.75;;
23519;SDS011;11936;50.820;4.336;2024-01-27T03:27:35;17.73;;;4.70;;
23519;SDS011;11936;50.820;4.336;2024-01-27T03:30:01;16.77;;;4.45;;
23519;SDS011;11936;50.820;4.336;2024-01-27T03:32:28;16.45;;;4.55;;
23519;SDS011;11936;50.820;4.336;2024-01-27T03:34:56;22.42;;;5.25;;
23519;SDS011;11936;50.820;4.336;2024-01-27T03:37:26;12.00;;;4.35;;
23519;SDS011;11936;50.820;4.336;2024-01-27T03:39:51;14.48;;;4.80;;
23519;SDS011;11936;50.820;4.336;2024-01-27T03:42:17;13.13;;;5.07;;
23519;SDS011;11936;50.820;4.336;2024-01-27T03:44:43;19.55;;;5.55;;
23519;SDS011;11936;50.820;4.336;2024-01-27T03:47:08;14.93;;;4.53;;
23519;SDS011;11936;50.820;4.336;2024-01-27T03:49:34;15.43;;;5.50;;
23519;SDS011;11936;50.820;4.336;2024-01-27T03:51:59;21.02;;;4.95;;
23519;SDS011;11936;50.820;4.336;2024-01-27T03:54:25;15.40;;;5.57;;
23519;SDS011;11936;50.820;4.336;2024-01-27T03:56:50;20.90;;;5.93;;
23519;SDS011;11936;50.820;4.336;2024-01-27T03:59:16;16.55;;;5.80;;
23519;SDS011;11936;50.820;4.336;2024-01-27T04:01:42;15.65;;;4.97;;
23519;SDS011;11936;50.820;4.336;2024-01-27T04:04:08;14.93;;;4.68;;
23519;SDS011;11936;50.820;4.336;2024-01-27T04:06:37;12.50;;;4.78;;
23519;SDS011;11936;50.820;4.336;2024-01-27T04:09:04;12.05;;;4.32;;
23519;SDS011;11936;50.820;4.336;2024-01-27T04:11:33;21.15;;;5.05;;
23519;SDS011;11936;50.820;4.336;2024-01-27T04:13:59;20.08;;;5.50;;
23519;SDS011;11936;50.820;4.336;2024-01-27T04:16:25;17.67;;;5.88;;
23519;SDS011;11936;50.820;4.336;2024-01-27T04:18:50;18.45;;;5.15;;
23519;SDS011;11936;50.820;4.336;2024-01-27T04:21:16;12.43;;;4.82;;
23519;SDS011;11936;50.820;4.336;2024-01-27T04:23:42;11.32;;;4.65;;
23519;SDS011;11936;50.820;4.336;2024-01-27T04:26:07;29.08;;;5.38;;
23519;SDS011;11936;50.820;4.336;2024-01-27T04:28:34;14.15;;;3.97;;
23519;SDS011;11936;50.820;4.336;2024-01-27T04:31:00;14.07;;;4.78;;
23519;SDS011;11936;50.820;4.336;2024-01-27T04:33:25;12.10;;;4.55;;
23519;SDS011;11936;50.820;4.336;2024-01-27T04:35:51;13.82;;;5.03;;
23519;SDS011;11936;50.820;4.336;2024-01-27T04:38:17;17.42;;;5.13;;
23519;SDS011;11936;50.820;4.336;2024-01-27T04:40:42;15.02;;;5.00;;
23519;SDS011;11936;50.820;4.336;2024-01-27T04:43:08;21.33;;;5.50;;
23519;SDS011;11936;50.820;4.336;2024-01-27T04:45:34;11.00;;;4.63;;
23519;SDS011;11936;50.820;4.336;2024-01-27T04:47:59;15.30;;;5.43;;
23519;SDS011;11936;50.820;4.336;2024-01-27T04:50:26;18.77;;;6.57;;
23519;SDS011;11936;50.820;4.336;2024-01-27T04:52:52;12.38;;;4.57;;
23519;SDS011;11936;50.820;4.336;2024-01-27T04:55:17;21.38;;;5.63;;
23519;SDS011;11936;50.820;4.336;2024-01-27T04:57:43;11.32;;;5.55;;
23519;SDS011;11936;50.820;4.336;2024-01-27T05:00:10;17.80;;;4.60;;
23519;SDS011;11936;50.820;4.336;2024-01-27T05:02:40;19.33;;;4.93;;
23519;SDS011;11936;50.820;4.336;2024-01-27T05:05:07;19.30;;;5.10;;
23519;SDS011;11936;50.820;4.336;2024-01-27T05:07:33;12.05;;;4.97;;
23519;SDS011;11936;50.820;4.336;2024-01-27T05:09:59;12.23;;;4.70;;
23519;SDS011;11936;50.820;4.336;2024-01-27T05:12:25;13.27;;;5.05;;
23519;SDS011;11936;50.820;4.336;2024-01-27T05:14:50;11.75;;;4.45;;
23519;SDS011;11936;50.820;4.336;2024-01-27T05:17:16;15.25;;;4.68;;
23519;SDS011;11936;50.820;4.336;2024-01-27T05:19:42;12.32;;;4.13;;
23519;SDS011;11936;50.820;4.336;2024-01-27T05:22:07;9.60;;;4.97;;
23519;SDS011;11936;50.820;4.336;2024-01-27T05:24:33;11.68;;;4.82;;
23519;SDS011;11936;50.820;4.336;2024-01-27T05:26:58;14.18;;;4.80;;
23519;SDS011;11936;50.820;4.336;2024-01-27T05:29:25;17.55;;;4.78;;
23519;SDS011;11936;50.820;4.336;2024-01-27T05:31:52;13.48;;;4.47;;
23519;SDS011;11936;50.820;4.336;2024-01-27T05:34:18;14.07;;;4.70;;
23519;SDS011;11936;50.820;4.336;2024-01-27T05:36:43;12.88;;;4.90;;
23519;SDS011;11936;50.820;4.336;2024-01-27T05:39:09;14.75;;;4.95;;
23519;SDS011;11936;50.820;4.336;2024-01-27T05:41:34;17.90;;;5.22;;
23519;SDS011;11936;50.820;4.336;2024-01-27T05:44:00;15.90;;;5.13;;
23519;SDS011;11936;50.820;4.336;2024-01-27T05:46:26;16.17;;;4.88;;
23519;SDS011;11936;50.820;4.336;2024-01-27T05:48:51;16.45;;;5.68;;
23519;SDS011;11936;50.820;4.336;2024-01-27T05:51:22;15.27;;;4.75;;
23519;SDS011;11936;50.820;4.336;2024-01-27T05:53:48;17.13;;;5.50;;
23519;SDS011;11936;50.820;4.336;2024-01-27T05:56:14;18.00;;;5.60;;
23519;SDS011;11936;50.820;4.336;2024-01-27T05:58:41;9.00;;;4.80;;
23519;SDS011;11936;50.820;4.336;2024-01-27T06:01:06;20.48;;;5.70;;
23519;SDS011;11936;50.820;4.336;2024-01-27T06:03:33;12.57;;;4.78;;
23519;SDS011;11936;50.820;4.336;2024-01-27T06:06:00;13.25;;;5.65;;
23519;SDS011;11936;50.820;4.336;2024-01-27T06:08:26;16.35;;;5.45;;
23519;SDS011;11936;50.820;4.336;2024-01-27T06:10:52;9.48;;;4.43;;
23519;SDS011;11936;50.820;4.336;2024-01-27T06:13:17;14.57;;;5.28;;
23519;SDS011;11936;50.820;4.336;2024-01-27T06:15:43;18.67;;;5.30;;
23519;SDS011;11936;50.820;4.336;2024-01-27T06:18:08;13.15;;;4.63;;
23519;SDS011;11936;50.820;4.336;2024-01-27T06:20:34;16.73;;;4.80;;
23519;SDS011;11936;50.820;4.336;2024-01-27T06:23:00;16.75;;;5.20;;
23519;SDS011;11936;50.820;4.336;2024-01-27T06:25:25;13.52;;;4.63;;
23519;SDS011;11936;50.820;4.336;2024-01-27T06:27:51;11.00;;;5.22;;
23519;SDS011;11936;50.820;4.336;2024-01-27T06:30:16;11.30;;;5.05;;
23519;SDS011;11936;50.820;4.336;2024-01-27T06:32:43;11.80;;;4.97;;
23519;SDS011;11936;50.820;4.336;2024-01-27T06:35:08;16.55;;;4.70;;
23519;SDS011;11936;50.820;4.336;2024-01-27T06:37:34;14.73;;;4.60;;
23519;SDS011;11936;50.820;4.336;2024-01-27T06:40:00;21.00;;;4.85;;
23519;SDS011;11936;50.820;4.336;2024-01-27T06:42:26;9.82;;;4.53;;
23519;SDS011;11936;50.820;4.336;2024-01-27T06:44:51;10.45;;;4.63;;
23519;SDS011;11936;50.820;4.336;2024-01-27T06:47:17;13.15;;;4.68;;
23519;SDS011;11936;50.820;4.336;2024-01-27T06:49:42;18.10;;;4.97;;
23519;SDS011;11936;50.820;4.336;2024-01-27T06:52:08;19.63;;;5.32;;
23519;SDS011;11936;50.820;4.336;2024-01-27T06:54:34;14.13;;;4.65;;
23519;SDS011;11936;50.820;4.336;2024-01-27T06:57:01;15.55;;;4.93;;
23519;SDS011;11936;50.820;4.336;2024-01-27T06:59:27;18.38;;;5.13;;
23519;SDS011;11936;50.820;4.336;2024-01-27T07:01:52;14.25;;;5.00;;
23519;SDS011;11936;50.820;4.336;2024-01-27T07:04:18;16.13;;;5.07;;
23519;SDS011;11936;50.820;4.336;2024-01-27T07:06:44;9.80;;;3.97;;
23519;SDS011;11936;50.820;4.336;2024-01-27T07:09:09;11.38;;;4.28;;
23519;SDS011;11936;50.820;4.336;2024-01-27T07:11:36;11.18;;;4.15;;
23519;SDS011;11936;50.820;4.336;2024-01-27T07:14:04;13.52;;;4.55;;
23519;SDS011;11936;50.820;4.336;2024-01-27T07:16:31;15.32;;;5.32;;
23519;SDS011;11936;50.820;4.336;2024-01-27T07:18:58;17.58;;;5.28;;
23519;SDS011;11936;50.820;4.336;2024-01-27T07:21:24;13.15;;;4.97;;
23519;SDS011;11936;50.820;4.336;2024-01-27T07:23:51;9.35;;;4.72;;
23519;SDS011;11936;50.820;4.336;2024-01-27T07:26:17;16.63;;;5.25;;
23519;SDS011;11936;50.820;4.336;2024-01-27T07:28:46;17.42;;;5.45;;
23519;SDS011;11936;50.820;4.336;2024-01-27T07:31:12;14.63;;;4.47;;
23519;SDS011;11936;50.820;4.336;2024-01-27T07:33:38;27.40;;;5.55;;
23519;SDS011;11936;50.820;4.336;2024-01-27T07:36:04;14.95;;;6.63;;
23519;SDS011;11936;50.820;4.336;2024-01-27T07:38:30;12.75;;;4.63;;
23519;SDS011;11936;50.820;4.336;2024-01-27T07:40:55;12.57;;;5.47;;
23519;SDS011;11936;50.820;4.336;2024-01-27T07:43:21;18.60;;;5.63;;
23519;SDS011;11936;50.820;4.336;2024-01-27T07:45:50;15.55;;;5.95;;
23519;SDS011;11936;50.820;4.336;2024-01-27T07:48:17;21.45;;;5.43;;
23519;SDS011;11936;50.820;4.336;2024-01-27T07:50:43;12.93;;;3.97;;
23519;SDS011;11936;50.820;4.336;2024-01-27T07:53:13;21.08;;;5.45;;
23519;SDS011;11936;50.820;4.336;2024-01-27T07:55:39;17.08;;;5.15;;
23519;SDS011;11936;50.820;4.336;2024-01-27T07:58:05;23.20;;;6.03;;
23519;SDS011;11936;50.820;4.336;2024-01-27T08:00:30;21.48;;;5.88;;
23519;SDS011;11936;50.820;4.336;2024-01-27T08:02:57;19.95;;;6.22;;
23519;SDS011;11936;50.820;4.336;2024-01-27T08:05:23;15.00;;;5.22;;
23519;SDS011;11936;50.820;4.336;2024-01-27T08:07:48;13.45;;;5.65;;
23519;SDS011;11936;50.820;4.336;2024-01-27T08:10:14;22.40;;;6.35;;
23519;SDS011;11936;50.820;4.336;2024-01-27T08:12:40;14.88;;;5.50;;
23519;SDS011;11936;50.820;4.336;2024-01-27T08:15:06;15.77;;;5.28;;
23519;SDS011;11936;50.820;4.336;2024-01-27T08:17:32;18.75;;;5.88;;
23519;SDS011;11936;50.820;4.336;2024-01-27T08:19:58;17.45;;;5.65;;
23519;SDS011;11936;50.820;4.336;2024-01-27T08:22:24;18.48;;;5.50;;
23519;SDS011;11936;50.820;4.336;2024-01-27T08:24:50;15.15;;;5.22;;
23519;SDS011;11936;50.820;4.336;2024-01-27T08:27:15;19.45;;;5.65;;
23519;SDS011;11936;50.820;4.336;2024-01-27T08:29:41;14.27;;;5.57;;
23519;SDS011;11936;50.820;4.336;2024-01-27T08:32:06;20.48;;;7.57;;
23519;SDS011;11936;50.820;4.336;2024-01-27T08:34:32;21.75;;;7.47;;
23519;SDS011;11936;50.820;4.336;2024-01-27T08:36:59;20.27;;;5.88;;
23519;SDS011;11936;50.820;4.336;2024-01-27T08:39:25;21.83;;;5.50;;
23519;SDS011;11936;50.820;4.336;2024-01-27T08:41:51;17.95;;;5.70;;
23519;SDS011;11936;50.820;4.336;2024-01-27T08:44:16;20.98;;;6.20;;
23519;SDS011;11936;50.820;4.336;2024-01-27T08:46:42;15.77;;;5.30;;
23519;SDS011;11936;50.820;4.336;2024-01-27T08:49:08;16.48;;;6.15;;
23519;SDS011;11936;50.820;4.336;2024-01-27T08:51:33;15.00;;;5.45;;
23519;SDS011;11936;50.820;4.336;2024-01-27T08:53:59;16.75;;;5.30;;
23519;SDS011;11936;50.820;4.336;2024-01-27T08:56:25;13.90;;;4.72;;
23519;SDS011;11936;50.820;4.336;2024-01-27T08:58:50;17.13;;;4.25;;
23519;SDS011;11936;50.820;4.336;2024-01-27T09:01:17;18.75;;;5.43;;
23519;SDS011;11936;50.820;4.336;2024-01-27T09:03:43;12.77;;;4.32;;
23519;SDS011;11936;50.820;4.336;2024-01-27T09:06:09;9.77;;;5.13;;
23519;SDS011;11936;50.820;4.336;2024-01-27T09:08:34;18.60;;;5.78;;
23519;SDS011;11936;50.820;4.336;2024-01-27T09:11:01;17.92;;;6.38;;
23519;SDS011;11936;50.820;4.336;2024-01-27T09:13:28;21.65;;;6.10;;
23519;SDS011;11936;50.820;4.336;2024-01-27T09:15:53;17.45;;;5.75;;
23519;SDS011;11936;50.820;4.336;2024-01-27T09:18:19;16.67;;;6.03;;
23519;SDS011;11936;50.820;4.336;2024-01-27T09:20:45;20.83;;;5.78;;
23519;SDS011;11936;50.820;4.336;2024-01-27T09:23:11;15.30;;;5.85;;
23519;SDS011;11936;50.820;4.336;2024-01-27T09:25:37;17.75;;;6.10;;
23519;SDS011;11936;50.820;4.336;2024-01-27T09:28:02;16.90;;;6.25;;
23519;SDS011;11936;50.820;4.336;2024-01-27T09:30:28;20.00;;;6.97;;
23519;SDS011;11936;50.820;4.336;2024-01-27T09:32:54;17.60;;;5.78;;
23519;SDS011;11936;50.820;4.336;2024-01-27T09:35:19;21.85;;;6.88;;
23519;SDS011;11936;50.820;4.336;2024-01-27T09:37:45;22.00;;;6.90;;
23519;SDS011;11936;50.820;4.336;2024-01-27T09:40:11;21.17;;;6.07;;
23519;SDS011;11936;50.820;4.336;2024-01-27T09:42:37;19.77;;;5.45;;
23519;SDS011;11936;50.820;4.336;2024-01-27T09:45:06;17.90;;;6.65;;
23519;SDS011;11936;50.820;4.336;2024-01-27T09:47:34;17.05;;;6.25;;
23519;SDS011;11936;50.820;4.336;2024-01-27T09:50:01;23.60;;;6.75;;
23519;SDS011;11936;50.820;4.336;2024-01-27T09:52:26;18.77;;;6.18;;
23519;SDS011;11936;50.820;4.336;2024-01-27T09:54:52;20.67;;;6.70;;
23519;SDS011;11936;50.820;4.336;2024-01-27T09:57:18;21.02;;;6.47;;
23519;SDS011;11936;50.820;4.336;2024-01-27T09:59:45;14.68;;;6.07;;
23519;SDS011;11936;50.820;4.336;2024-01-27T10:02:14;12.18;;;5.38;;
23519;SDS011;11936;50.820;4.336;2024-01-27T10:04:42;19.95;;;6.60;;
23519;SDS011;11936;50.820;4.336;2024-01-27T10:07:10;20.80;;;6.78;;
23519;SDS011;11936;50.820;4.336;2024-01-27T10:09:35;16.65;;;6.32;;
23519;SDS011;11936;50.820;4.336;2024-01-27T10:12:01;20.13;;;6.35;;
23519;SDS011;11936;50.820;4.336;2024-01-27T10:14:40;15.02;;;6.28;;
23519;SDS011;11936;50.820;4.336;2024-01-27T10:17:08;19.08;;;6.53;;
23519;SDS011;11936;50.820;4.336;2024-01-27T10:19:35;23.63;;;7.30;;
23519;SDS011;11936;50.820;4.336;2024-01-27T10:22:01;19.20;;;7.65;;
23519;SDS011;11936;50.820;4.336;2024-01-27T10:24:27;20.52;;;6.15;;
23519;SDS011;11936;50.820;4.336;2024-01-27T10:27:00;16.15;;;5.38;;
23519;SDS011;11936;50.820;4.336;2024-01-27T10:29:27;20.27;;;5.55;;
23519;SDS011;11936;50.820;4.336;2024-01-27T10:31:55;23.27;;;5.80;;
23519;SDS011;11936;50.820;4.336;2024-01-27T10:34:20;15.80;;;5.15;;
23519;SDS011;11936;50.820;4.336;2024-01-27T10:36:46;16.38;;;4.20;;
23519;SDS011;11936;50.820;4.336;2024-01-27T10:39:15;17.48;;;5.13;;
23519;SDS011;11936;50.820;4.336;2024-01-27T10:41:48;13.52;;;4.78;;
23519;SDS011;11936;50.820;4.336;2024-01-27T10:44:15;12.75;;;4.32;;
23519;SDS011;11936;50.820;4.336;2024-01-27T10:46:45;17.42;;;4.57;;
23519;SDS011;11936;50.820;4.336;2024-01-27T10:49:12;10.90;;;4.10;;
23519;SDS011;11936;50.820;4.336;2024-01-27T10:51:43;9.47;;;4.13;;
23519;SDS011;11936;50.820;4.336;2024-01-27T10:54:12;15.52;;;5.20;;
23519;SDS011;11936;50.820;4.336;2024-01-27T10:56:40;13.95;;;4.80;;
23519;SDS011;11936;50.820;4.336;2024-01-27T10:59:08;13.38;;;3.88;;
23519;SDS011;11936;50.820;4.336;2024-01-27T11:01:36;14.43;;;3.80;;
23519;SDS011;11936;50.820;4.336;2024-01-27T11:04:05;7.82;;;3.65;;
23519;SDS011;11936;50.820;4.336;2024-01-27T11:06:32;10.23;;;3.85;;
23519;SDS011;11936;50.820;4.336;2024-01-27T11:09:00;13.15;;;3.47;;
23519;SDS011;11936;50.820;4.336;2024-01-27T11:13:54;16.15;;;3.13;;
23519;SDS011;11936;50.820;4.336;2024-01-27T11:16:19;5.40;;;2.88;;
23519;SDS011;11936;50.820;4.336;2024-01-27T11:18:48;9.25;;;2.72;;
23519;SDS011;11936;50.820;4.336;2024-01-27T11:21:16;6.20;;;2.60;;
23519;SDS011;11936;50.820;4.336;2024-01-27T11:23:43;5.93;;;2.22;;
23519;SDS011;11936;50.820;4.336;2024-01-27T11:26:10;10.05;;;2.38;;
23519;SDS011;11936;50.820;4.336;2024-01-27T11:28:42;9.23;;;2.70;;
23519;SDS011;11936;50.820;4.336;2024-01-27T11:31:07;8.55;;;2.83;;
23519;SDS011;11936;50.820;4.336;2024-01-27T11:33:40;7.55;;;2.58;;
23519;SDS011;11936;50.820;4.336;2024-01-27T11:36:17;5.57;;;2.47;;
23519;SDS011;11936;50.820;4.336;2024-01-27T11:38:45;8.50;;;2.55;;
23519;SDS011;11936;50.820;4.336;2024-01-27T11:41:10;12.25;;;2.85;;
23519;SDS011;11936;50.820;4.336;2024-01-27T11:43:36;14.43;;;3.13;;
23519;SDS011;11936;50.820;4.336;2024-01-27T11:46:02;12.52;;;3.38;;
23519;SDS011;11936;50.820;4.336;2024-01-27T11:48:27;8.68;;;2.78;;
23519;SDS011;11936;50.820;4.336;2024-01-27T11:51:05;11.18;;;3.05;;
23519;SDS011;11936;50.820;4.336;2024-01-27T11:53:35;12.63;;;4.80;;
23519;SDS011;11936;50.820;4.336;2024-01-27T11:56:24;13.00;;;3.65;;
23519;SDS011;11936;50.820;4.336;2024-01-27T11:58:50;12.50;;;2.75;;
23519;SDS011;11936;50.820;4.336;2024-01-27T12:01:16;9.10;;;3.65;;
23519;SDS011;11936;50.820;4.336;2024-01-27T12:03:42;9.82;;;2.72;;
23519;SDS011;11936;50.820;4.336;2024-01-27T12:06:07;11.45;;;3.97;;
23519;SDS011;11936;50.820;4.336;2024-01-27T12:08:35;10.68;;;3.28;;
23519;SDS011;11936;50.820;4.336;2024-01-27T12:11:01;12.13;;;3.83;;
23519;SDS011;11936;50.820;4.336;2024-01-27T12:13:27;13.05;;;3.42;;
23519;SDS011;11936;50.820;4.336;2024-01-27T12:15:52;9.10;;;2.72;;
23519;SDS011;11936;50.820;4.336;2024-01-27T12:18:18;11.10;;;3.58;;
23519;SDS011;11936;50.820;4.336;2024-01-27T12:20:44;8.93;;;2.63;;
23519;SDS011;11936;50.820;4.336;2024-01-27T12:23:10;8.07;;;3.22;;
23519;SDS011;11936;50.820;4.336;2024-01-27T12:25:35;6.60;;;2.58;;
23519;SDS011;11936;50.820;4.336;2024-01-27T12:28:02;9.80;;;3.13;;
23519;SDS011;11936;50.820;4.336;2024-01-27T12:30:28;11.98;;;3.00;;
23519;SDS011;11936;50.820;4.336;2024-01-27T12:32:53;11.85;;;3.13;;
23519;SDS011;11936;50.820;4.336;2024-01-27T12:35:19;10.48;;;3.42;;
23519;SDS011;11936;50.820;4.336;2024-01-27T12:37:45;5.30;;;2.63;;
23519;SDS011;11936;50.820;4.336;2024-01-27T12:40:18;7.65;;;2.88;;
23519;SDS011;11936;50.820;4.336;2024-01-27T12:42:44;10.75;;;2.97;;
23519;SDS011;11936;50.820;4.336;2024-01-27T12:45:09;13.45;;;3.67;;
23519;SDS011;11936;50.820;4.336;2024-01-27T12:47:35;11.25;;;2.88;;
23519;SDS011;11936;50.820;4.336;2024-01-27T12:50:01;9.77;;;2.78;;
23519;SDS011;11936;50.820;4.336;2024-01-27T12:52:27;8.23;;;2.72;;
23519;SDS011;11936;50.820;4.336;2024-01-27T12:54:52;9.75;;;2.75;;
23519;SDS011;11936;50.820;4.336;2024-01-27T12:57:18;8.05;;;3.38;;
23519;SDS011;11936;50.820;4.336;2024-01-27T12:59:44;11.88;;;2.92;;
23519;SDS011;11936;50.820;4.336;2024-01-27T13:02:10;9.45;;;3.55;;
23519;SDS011;11936;50.820;4.336;2024-01-27T13:04:36;10.35;;;3.65;;
23519;SDS011;11936;50.820;4.336;2024-01-27T13:07:01;13.32;;;4.13;;
23519;SDS011;11936;50.820;4.336;2024-01-27T13:09:27;9.77;;;3.60;;
23519;SDS011;11936;50.820;4.336;2024-01-27T13:11:52;10.38;;;3.38;;
23519;SDS011;11936;50.820;4.336;2024-01-27T13:14:18;12.70;;;2.95;;
23519;SDS011;11936;50.820;4.336;2024-01-27T13:16:45;7.95;;;2.22;;
23519;SDS011;11936;50.820;4.336;2024-01-27T13:19:11;8.23;;;2.17;;
23519;SDS011;11936;50.820;4.336;2024-01-27T13:21:37;6.13;;;2.30;;
23519;SDS011;11936;50.820;4.336;2024-01-27T13:24:04;15.80;;;2.40;;
23519;SDS011;11936;50.820;4.336;2024-01-27T13:26:32;7.07;;;2.58;;
23519;SDS011;11936;50.820;4.336;2024-01-27T13:28:59;12.18;;;2.47;;
23519;SDS011;11936;50.820;4.336;2024-01-27T13:31:25;6.85;;;2.05;;
23519;SDS011;11936;50.820;4.336;2024-01-27T13:33:50;11.20;;;3.15;;
23519;SDS011;11936;50.820;4.336;2024-01-27T13:36:16;9.27;;;2.53;;
23519;SDS011;11936;50.820;4.336;2024-01-27T13:38:42;7.43;;;2.50;;
23519;SDS011;11936;50.820;4.336;2024-01-27T13:41:07;7.97;;;2.40;;
23519;SDS011;11936;50.820;4.336;2024-01-27T13:43:33;15.27;;;2.95;;
23519;SDS011;11936;50.820;4.336;2024-01-27T13:45:58;8.40;;;2.38;;
23519;SDS011;11936;50.820;4.336;2024-01-27T13:48:24;7.10;;;2.55;;
23519;SDS011;11936;50.820;4.336;2024-01-27T13:50:50;8.30;;;2.53;;
23519;SDS011;11936;50.820;4.336;2024-01-27T13:53:15;9.90;;;2.88;;
23519;SDS011;11936;50.820;4.336;2024-01-27T13:55:41;6.13;;;2.40;;
23519;SDS011;11936;50.820;4.336;2024-01-27T13:58:09;12.13;;;3.00;;
23519;SDS011;11936;50.820;4.336;2024-01-27T14:00:34;14.98;;;2.53;;
23519;SDS011;11936;50.820;4.336;2024-01-27T14:03:00;8.65;;;2.45;;
23519;SDS011;11936;50.820;4.336;2024-01-27T14:05:26;10.43;;;2.90;;
23519;SDS011;11936;50.820;4.336;2024-01-27T14:07:51;7.95;;;2.45;;
23519;SDS011;11936;50.820;4.336;2024-01-27T14:10:18;10.30;;;2.90;;
23519;SDS011;11936;50.820;4.336;2024-01-27T14:12:43;10.75;;;2.42;;
23519;SDS011;11936;50.820;4.336;2024-01-27T14:15:09;8.73;;;3.17;;
23519;SDS011;11936;50.820;4.336;2024-01-27T14:17:35;10.25;;;2.90;;
23519;SDS011;11936;50.820;4.336;2024-01-27T14:22:30;11.30;;;2.63;;
23519;SDS011;11936;50.820;4.336;2024-01-27T14:24:55;8.63;;;2.70;;
23519;SDS011;11936;50.820;4.336;2024-01-27T14:27:21;12.15;;;3.53;;
23519;SDS011;11936;50.820;4.336;2024-01-27T14:29:56;8.20;;;3.03;;
23519;SDS011;11936;50.820;4.336;2024-01-27T14:32:22;11.98;;;2.85;;
23519;SDS011;11936;50.820;4.336;2024-01-27T14:34:48;8.50;;;2.70;;